Skip Navigation LinksHome page > Weather > Current weather Skip Navigation Links

Current Weather

Alert, Nunavut

For information only: do not use for flight planning or navigation.
Latest weather
Observation time Wednesday, August 20, 2014 2:00 PM EDT
Local time Wednesday, August 20, 2014 2:31 PM EDT
Flight conditions Visual Meteorological Conditions
Winds
Wind direction South-Southwest (210°)
Wind speed 18 mph
Visibility 15 mi.
Sky condition
Ceiling 24,000 ft. broken clouds
Cloud layer few clouds 4,000 ft.
Cloud layer scattered clouds 12,000 ft.
Cloud layer broken clouds 24,000 ft.
Temperature 55°F
Dewpoint 37°F
Altimeter 29.77 in.Hg
Derived measurements
Relative humidity 51%
Density altitude 50 ft.
Sea-level pressure 29.78 in.Hg
Remarks
Standing lenticular altocumulus clouds observed associated.
METAR CYLT 201800Z 21016KT 15SM FEW040 SCT120 BKN240 13/03 A2977 RMK SC1AC2CI1 ACSL ASOCTD SLP085

Settings

Location code

InnerDrive.Weather 4.0.5341.0 Release CLR 4.0.30319.34014
Copyright ©2014 Inner Drive Technology. All rights reserved. Portions Copyright ©1986-2014 David Braverman.

Find weather

Site navigation


Skip Navigation Links

Place info

Page info

PayPal - The safer, easier way to pay online!

Return home.

Copyright ©2014 Inner Drive Technology. Purveyors of fine, hand-crafted computer software. Page printed 2014-08-20T18:31:28 UTC.